createdAt,value
2019-05-07T00:02:15.452Z,24.67
2019-05-07T00:04:43.256Z,18.40
2019-05-07T00:07:12.895Z,23.63
2019-05-07T00:09:40.134Z,18.13
2019-05-07T00:12:07.705Z,19.47
2019-05-07T00:14:35.961Z,21.00
2019-05-07T00:17:04.591Z,20.47
2019-05-07T00:19:32.512Z,22.67
2019-05-07T00:22:02.280Z,21.20
2019-05-07T00:24:29.565Z,23.57
2019-05-07T00:26:57.129Z,25.93
2019-05-07T00:29:24.699Z,23.77
2019-05-07T00:31:52.264Z,18.83
2019-05-07T00:34:22.022Z,25.50
2019-05-07T00:37:14.414Z,17.20
2019-05-07T00:40:13.015Z,22.00
2019-05-07T00:42:58.726Z,22.90
2019-05-07T00:45:36.940Z,20.37
2019-05-07T00:48:04.515Z,27.63
2019-05-07T00:50:33.991Z,28.83
2019-05-07T00:53:02.149Z,24.03
2019-05-07T00:55:29.822Z,25.53
2019-05-07T00:57:57.393Z,37.10
2019-05-07T01:00:24.927Z,32.03
2019-05-07T01:02:52.665Z,30.40
2019-05-07T01:05:20.416Z,30.43
2019-05-07T01:07:47.969Z,23.40
2019-05-07T01:10:15.717Z,27.57
2019-05-07T01:12:43.285Z,25.73
2019-05-07T01:15:12.879Z,28.20
2019-05-07T01:17:42.404Z,24.40
2019-05-07T01:20:09.666Z,26.97
2019-05-07T01:22:37.186Z,22.47
2019-05-07T01:25:06.225Z,30.07
2019-05-07T01:27:33.769Z,29.60
2019-05-07T01:30:02.523Z,30.23
2019-05-07T01:32:53.266Z,28.03
2019-05-07T01:35:42.300Z,28.20
2019-05-07T01:38:09.779Z,37.90
2019-05-07T01:40:37.300Z,26.10
2019-05-07T01:43:04.870Z,32.77
2019-05-07T01:45:45.852Z,25.10
2019-05-07T01:48:04.240Z,28.87
2019-05-07T01:50:32.275Z,25.67
2019-05-07T01:52:59.965Z,25.90
2019-05-07T01:55:27.534Z,24.50
2019-05-07T01:57:55.268Z,24.50
2019-05-07T02:00:22.796Z,23.07
2019-05-07T02:02:55.700Z,22.70
2019-05-07T02:05:55.091Z,20.23
2019-05-07T02:08:53.945Z,17.20
2019-05-07T02:11:25.600Z,22.77
2019-05-07T02:13:53.160Z,22.37
2019-05-07T02:16:21.858Z,22.10
2019-05-07T02:18:49.533Z,20.80
2019-05-07T02:21:17.264Z,19.87
2019-05-07T02:23:44.797Z,21.17
2019-05-07T02:26:13.341Z,23.53
2019-05-07T02:28:42.611Z,25.07
2019-05-07T02:31:10.582Z,25.33
2019-05-07T02:33:38.112Z,26.03
2019-05-07T02:36:05.625Z,29.70
2019-05-07T02:38:45.610Z,31.57
2019-05-07T02:41:17.085Z,32.77
2019-05-07T02:43:44.589Z,32.60
2019-05-07T02:46:36.338Z,30.17
2019-05-07T02:49:14.320Z,37.73
2019-05-07T02:51:53.196Z,34.17
2019-05-07T02:54:26.033Z,27.00
2019-05-07T02:56:53.790Z,28.23
2019-05-07T02:59:23.317Z,29.73
2019-05-07T03:01:53.462Z,30.90
2019-05-07T03:04:20.319Z,35.40
2019-05-07T03:06:47.859Z,32.67
2019-05-07T03:09:15.398Z,31.00
2019-05-07T03:11:43.620Z,29.63
2019-05-07T03:14:13.986Z,26.43
2019-05-07T03:16:45.467Z,31.57
2019-05-07T03:19:13.090Z,32.90
2019-05-07T03:21:58.886Z,33.50
2019-05-07T03:24:43.512Z,35.73
2019-05-07T03:27:14.033Z,35.93
2019-05-07T03:29:44.206Z,33.17
2019-05-07T03:32:31.726Z,40.93
2019-05-07T03:35:17.239Z,30.40
2019-05-07T03:37:45.085Z,28.63
2019-05-07T03:40:14.223Z,31.63
2019-05-07T03:42:44.051Z,31.63
2019-05-07T03:45:34.163Z,30.33
2019-05-07T03:48:13.724Z,28.87
2019-05-07T03:50:43.063Z,36.03
2019-05-07T03:53:13.900Z,31.70
2019-05-07T03:55:40.187Z,27.07
2019-05-07T03:58:08.219Z,32.83
2019-05-07T04:00:35.940Z,35.23
2019-05-07T04:03:03.809Z,40.60
2019-05-07T04:05:34.204Z,31.30
2019-05-07T04:08:03.288Z,38.83
2019-05-07T04:10:33.465Z,48.63
2019-05-07T04:12:59.674Z,32.63
2019-05-07T04:15:27.212Z,40.13
2019-05-07T04:17:54.768Z,35.93
2019-05-07T04:20:23.945Z,38.40
2019-05-07T04:22:53.556Z,40.53
2019-05-07T04:25:43.672Z,44.37
2019-05-07T04:28:23.648Z,47.87
2019-05-07T04:30:53.281Z,41.67
2019-05-07T04:33:23.713Z,36.13
2019-05-07T04:36:13.823Z,36.30
2019-05-07T04:38:40.273Z,32.10
2019-05-07T04:41:07.813Z,35.53
2019-05-07T04:43:35.639Z,31.23
2019-05-07T04:46:03.503Z,33.13
2019-05-07T04:48:33.739Z,30.33
2019-05-07T04:51:03.545Z,33.50
2019-05-07T04:53:32.786Z,29.97
2019-05-07T04:56:03.398Z,26.00
2019-05-07T04:58:30.073Z,28.93
2019-05-07T05:00:57.781Z,42.20
2019-05-07T05:03:27.534Z,38.57
2019-05-07T05:05:55.087Z,44.80
2019-05-07T05:08:23.692Z,43.27
2019-05-07T05:10:53.762Z,40.63
2019-05-07T05:13:23.271Z,36.47
2019-05-07T05:15:50.159Z,34.23
2019-05-07T05:18:17.719Z,30.10
2019-05-07T05:21:12.141Z,30.03
2019-05-07T05:24:05.603Z,30.57
2019-05-07T05:26:33.131Z,27.70
2019-05-07T05:29:02.430Z,25.53
2019-05-07T05:31:30.034Z,23.83
2019-05-07T05:33:57.582Z,24.90
2019-05-07T05:36:25.150Z,28.20
2019-05-07T05:38:53.015Z,24.23
2019-05-07T05:41:22.615Z,27.63
2019-05-07T05:44:06.360Z,24.43
2019-05-07T05:46:33.970Z,26.00
2019-05-07T05:49:02.630Z,26.93
2019-05-07T05:51:40.031Z,24.77
2019-05-07T05:54:31.795Z,18.10
2019-05-07T05:57:06.747Z,18.60
2019-05-07T05:59:51.339Z,31.67
2019-05-07T06:02:33.905Z,18.63
2019-05-07T06:05:34.536Z,15.60
2019-05-07T06:08:23.854Z,14.73
2019-05-07T06:11:02.271Z,14.67
2019-05-07T06:13:35.905Z,14.60
2019-05-07T06:16:12.743Z,16.80
2019-05-07T06:19:05.448Z,11.53
2019-05-07T06:21:52.616Z,13.30
2019-05-07T06:24:31.861Z,13.97
2019-05-07T06:26:59.549Z,15.93
2019-05-07T06:29:27.069Z,17.90
2019-05-07T06:32:02.774Z,17.70
2019-05-07T06:34:30.440Z,15.83
2019-05-07T06:36:58.014Z,13.47
2019-05-07T06:39:29.322Z,15.90
2019-05-07T06:42:15.227Z,16.47
2019-05-07T06:44:42.997Z,15.83
2019-05-07T06:47:12.944Z,23.83
2019-05-07T06:49:39.913Z,13.67
2019-05-07T06:52:07.450Z,15.67
2019-05-07T06:54:35.163Z,17.67
2019-05-07T06:57:02.918Z,16.77
2019-05-07T06:59:53.129Z,15.53
2019-05-07T07:02:41.931Z,15.50
2019-05-07T07:05:17.571Z,18.37
2019-05-07T07:07:49.748Z,19.10
2019-05-07T07:10:32.265Z,19.60
2019-05-07T07:13:02.272Z,16.57
2019-05-07T07:15:29.337Z,16.07
2019-05-07T07:17:56.902Z,19.57
2019-05-07T07:20:24.503Z,26.03
2019-05-07T07:22:52.143Z,16.37
2019-05-07T07:25:19.641Z,14.63
2019-05-07T07:27:47.183Z,14.40
2019-05-07T07:30:26.414Z,16.53
2019-05-07T07:32:54.022Z,14.97
2019-05-07T07:35:22.559Z,13.87
2019-05-07T07:37:50.222Z,12.50
2019-05-07T07:40:38.070Z,11.80
2019-05-07T07:43:07.156Z,9.97
2019-05-07T07:45:35.123Z,11.87
2019-05-07T07:48:02.670Z,7.77
2019-05-07T07:50:30.219Z,10.60
2019-05-07T07:52:57.789Z,7.20
2019-05-07T07:55:33.035Z,8.37
2019-05-07T07:58:12.063Z,11.27
2019-05-07T08:00:56.262Z,8.13
2019-05-07T08:03:23.843Z,9.13
2019-05-07T08:05:51.886Z,9.80
2019-05-07T08:08:21.823Z,10.03
2019-05-07T08:10:48.857Z,8.93
2019-05-07T08:13:16.401Z,8.30
2019-05-07T08:15:43.928Z,12.67
2019-05-07T08:18:12.128Z,7.27
2019-05-07T08:20:39.803Z,8.73
2019-05-07T08:23:07.335Z,9.93
2019-05-07T08:25:47.088Z,7.70
2019-05-07T08:28:14.991Z,7.27
2019-05-07T08:30:44.337Z,9.23
2019-05-07T08:33:19.570Z,8.57
2019-05-07T08:36:06.720Z,7.87
2019-05-07T08:38:48.825Z,7.80
2019-05-07T08:41:16.611Z,8.73
2019-05-07T08:43:44.185Z,8.33
2019-05-07T08:46:46.292Z,7.03
2019-05-07T08:49:14.572Z,12.00
2019-05-07T08:51:42.650Z,9.57
2019-05-07T08:54:12.153Z,5.80
2019-05-07T08:56:39.771Z,13.43
2019-05-07T08:59:07.441Z,14.57
2019-05-07T09:01:36.424Z,8.53
2019-05-07T09:04:04.207Z,8.33
2019-05-07T09:06:35.257Z,7.27
2019-05-07T09:09:09.086Z,8.13
2019-05-07T09:11:36.631Z,5.67
2019-05-07T09:14:04.313Z,6.97
2019-05-07T09:16:32.010Z,11.00
2019-05-07T09:18:59.590Z,4.97
2019-05-07T09:21:27.128Z,4.17
2019-05-07T09:23:54.690Z,7.53
2019-05-07T09:26:28.009Z,5.37
2019-05-07T09:29:02.684Z,8.07
2019-05-07T09:31:39.186Z,7.40
2019-05-07T09:34:06.731Z,5.37
2019-05-07T09:36:42.434Z,5.57
2019-05-07T09:39:11.940Z,5.73
2019-05-07T09:41:39.355Z,6.80
2019-05-07T09:44:06.921Z,5.73
2019-05-07T09:46:34.600Z,6.60
2019-05-07T09:49:03.082Z,8.27
2019-05-07T09:51:32.151Z,7.27
2019-05-07T09:54:02.394Z,7.10
2019-05-07T09:56:29.328Z,5.97
2019-05-07T09:58:56.979Z,5.00
2019-05-07T10:01:24.807Z,5.13
2019-05-07T10:03:52.352Z,6.47
2019-05-07T10:06:19.889Z,4.90
2019-05-07T10:08:47.483Z,5.30
2019-05-07T10:11:22.552Z,6.37
2019-05-07T10:14:01.936Z,16.57
2019-05-07T10:16:44.966Z,8.67
2019-05-07T10:19:12.574Z,6.60
2019-05-07T10:21:42.426Z,5.63
2019-05-07T10:24:09.433Z,7.90
2019-05-07T10:26:43.099Z,4.77
2019-05-07T10:29:12.443Z,4.70
2019-05-07T10:31:42.252Z,6.47
2019-05-07T10:34:09.509Z,5.87
2019-05-07T10:36:37.072Z,5.30
2019-05-07T10:39:05.964Z,4.97
2019-05-07T10:41:34.519Z,7.23
2019-05-07T10:44:02.553Z,5.00
2019-05-07T10:47:05.230Z,5.30
2019-05-07T10:49:39.143Z,5.60
2019-05-07T10:52:06.776Z,8.43
2019-05-07T10:54:34.652Z,7.33
2019-05-07T10:57:02.179Z,5.13
2019-05-07T10:59:29.707Z,8.03
2019-05-07T11:02:06.681Z,5.63
2019-05-07T11:04:42.652Z,6.90
2019-05-07T11:07:04.166Z,6.53
2019-05-07T11:09:32.804Z,6.70
2019-05-07T11:12:02.419Z,7.53
2019-05-07T11:14:32.020Z,6.73
2019-05-07T11:17:15.437Z,6.53
2019-05-07T11:19:43.028Z,5.30
2019-05-07T11:22:11.613Z,5.30
2019-05-07T11:24:39.328Z,7.43
2019-05-07T11:27:11.783Z,5.57
2019-05-07T11:29:39.017Z,8.47
2019-05-07T11:32:06.560Z,5.53
2019-05-07T11:34:36.065Z,6.50
2019-05-07T11:37:03.712Z,11.47
2019-05-07T11:39:33.075Z,6.67
2019-05-07T11:42:35.143Z,8.47
2019-05-07T11:45:02.796Z,6.87
2019-05-07T11:47:32.063Z,6.90
2019-05-07T11:50:17.845Z,8.53
2019-05-07T11:52:51.758Z,6.10
2019-05-07T11:55:19.541Z,5.23
2019-05-07T11:57:47.095Z,7.27
2019-05-07T12:00:27.966Z,6.17
2019-05-07T12:02:55.520Z,7.20
2019-05-07T12:05:23.061Z,8.13
2019-05-07T12:07:50.642Z,6.93
2019-05-07T12:10:18.223Z,7.13
2019-05-07T12:12:48.824Z,6.07
2019-05-07T12:15:16.957Z,5.33
2019-05-07T12:17:44.517Z,5.77
2019-05-07T12:20:12.796Z,6.70
2019-05-07T12:22:46.522Z,7.00
2019-05-07T12:25:15.046Z,6.57
2019-05-07T12:27:42.625Z,8.90
2019-05-07T12:30:12.267Z,6.47
2019-05-07T12:32:57.518Z,7.40
2019-05-07T12:35:25.103Z,8.97
2019-05-07T12:37:52.657Z,8.30
2019-05-07T12:40:22.406Z,6.83
2019-05-07T12:42:50.115Z,8.47
2019-05-07T12:45:17.902Z,11.03
2019-05-07T12:47:45.480Z,8.63
2019-05-07T12:50:13.130Z,7.50
2019-05-07T12:53:02.184Z,6.97
2019-05-07T12:55:42.925Z,8.00
2019-05-07T12:58:12.488Z,5.63
2019-05-07T13:01:00.700Z,8.57
2019-05-07T13:03:34.841Z,7.50
2019-05-07T13:06:02.949Z,7.40
2019-05-07T13:08:32.739Z,7.63
2019-05-07T13:10:59.881Z,5.77
2019-05-07T13:13:27.472Z,5.83
2019-05-07T13:15:55.014Z,10.93
2019-05-07T13:18:22.782Z,10.87
2019-05-07T13:20:51.899Z,6.73
2019-05-07T13:23:19.641Z,6.80
2019-05-07T13:25:47.606Z,8.07
2019-05-07T13:28:15.140Z,6.03
2019-05-07T13:30:43.929Z,10.10
2019-05-07T13:33:14.282Z,10.17
2019-05-07T13:35:44.386Z,10.50
2019-05-07T13:38:32.514Z,9.63
2019-05-07T13:41:14.377Z,8.30
2019-05-07T13:44:08.158Z,6.67
2019-05-07T13:46:36.423Z,6.10
2019-05-07T13:49:04.177Z,9.17
2019-05-07T13:51:33.724Z,7.60
2019-05-07T13:54:02.089Z,6.73
2019-05-07T13:56:29.820Z,7.30
2019-05-07T13:58:57.358Z,7.53
2019-05-07T14:01:46.342Z,8.83
2019-05-07T14:04:13.910Z,5.80
2019-05-07T14:06:43.041Z,7.37
2019-05-07T14:09:18.742Z,6.10
2019-05-07T14:11:46.398Z,5.63
2019-05-07T14:14:14.026Z,8.50
2019-05-07T14:16:42.469Z,7.83
2019-05-07T14:19:12.934Z,7.03
2019-05-07T14:21:42.164Z,6.30
2019-05-07T14:24:12.316Z,6.63
2019-05-07T14:26:39.261Z,10.10
2019-05-07T14:29:06.790Z,5.50
2019-05-07T14:31:34.465Z,8.97
2019-05-07T14:34:08.041Z,6.57
2019-05-07T14:36:44.202Z,6.83
2019-05-07T14:39:11.736Z,9.03
2019-05-07T14:41:39.236Z,6.87
2019-05-07T14:44:14.179Z,8.77
2019-05-07T14:46:50.408Z,9.00
2019-05-07T14:49:12.053Z,9.87
2019-05-07T14:51:39.764Z,12.40
2019-05-07T14:54:07.393Z,7.57
2019-05-07T14:56:35.402Z,7.00
2019-05-07T14:59:03.198Z,7.03
2019-05-07T15:01:30.964Z,7.40
2019-05-07T15:03:58.829Z,7.90
2019-05-07T15:06:26.475Z,6.33
2019-05-07T15:08:54.314Z,9.07
2019-05-07T15:11:21.921Z,8.37
2019-05-07T15:13:49.448Z,9.63
2019-05-07T15:16:17.319Z,6.37
2019-05-07T15:18:57.914Z,6.03
2019-05-07T15:21:25.564Z,6.90
2019-05-07T15:23:53.726Z,5.87
2019-05-07T15:26:22.048Z,8.00
2019-05-07T15:28:55.289Z,6.90
2019-05-07T15:31:42.438Z,7.67
2019-05-07T15:34:12.240Z,5.87
2019-05-07T15:36:39.550Z,7.23
2019-05-07T15:39:07.219Z,7.73
2019-05-07T15:41:34.833Z,6.00
2019-05-07T15:44:02.804Z,6.90
2019-05-07T15:46:32.230Z,7.67
2019-05-07T15:49:01.778Z,6.13
2019-05-07T15:51:29.226Z,5.87
2019-05-07T15:53:57.838Z,5.97
2019-05-07T15:56:25.403Z,7.90
2019-05-07T15:58:52.927Z,8.80
2019-05-07T16:01:22.215Z,6.27
2019-05-07T16:03:52.085Z,6.23
2019-05-07T16:06:19.193Z,5.83
2019-05-07T16:08:59.682Z,6.43
2019-05-07T16:11:27.233Z,8.67
2019-05-07T16:14:14.666Z,13.27
2019-05-07T16:16:45.036Z,7.80
2019-05-07T16:19:17.021Z,7.77
2019-05-07T16:21:44.540Z,7.67
2019-05-07T16:24:12.250Z,10.37
2019-05-07T16:26:41.935Z,10.50
2019-05-07T16:29:09.208Z,7.43
2019-05-07T16:31:36.868Z,8.63
2019-05-07T16:34:04.422Z,11.37
2019-05-07T16:36:32.861Z,9.70
2019-05-07T16:39:03.239Z,7.87
2019-05-07T16:41:31.778Z,8.23
2019-05-07T16:43:59.479Z,7.07
2019-05-07T16:46:27.057Z,6.97
2019-05-07T16:48:55.715Z,5.87
2019-05-07T16:51:23.191Z,8.00
2019-05-07T16:53:52.393Z,8.00
2019-05-07T16:56:20.136Z,8.47
2019-05-07T16:58:52.347Z,5.70
2019-05-07T17:01:19.899Z,9.73
2019-05-07T17:03:54.398Z,7.53
2019-05-07T17:06:22.441Z,6.30
2019-05-07T17:08:56.317Z,7.83
2019-05-07T17:11:23.946Z,6.90
2019-05-07T17:13:51.951Z,8.53
2019-05-07T17:16:19.700Z,8.37
2019-05-07T17:18:47.245Z,7.33
2019-05-07T17:21:14.830Z,6.27
2019-05-07T17:23:44.605Z,9.73
2019-05-07T17:26:11.850Z,7.73
2019-05-07T17:28:39.599Z,7.50
2019-05-07T17:31:07.121Z,6.67
2019-05-07T17:33:34.740Z,7.53
2019-05-07T17:36:02.555Z,6.70
2019-05-07T17:38:32.182Z,6.60
2019-05-07T17:41:12.902Z,10.13
2019-05-07T17:43:29.188Z,8.83
2019-05-07T17:45:56.765Z,6.97
2019-05-07T17:48:24.335Z,8.07
2019-05-07T17:51:23.439Z,7.37
2019-05-07T17:53:59.350Z,8.67
2019-05-07T17:56:22.320Z,9.10
2019-05-07T17:58:52.115Z,6.23
2019-05-07T18:01:33.140Z,6.63
2019-05-07T18:04:02.472Z,6.10
2019-05-07T18:06:32.796Z,5.97
2019-05-07T18:09:02.719Z,6.77
2019-05-07T18:11:29.693Z,6.00
2019-05-07T18:13:57.440Z,8.77
2019-05-07T18:16:48.572Z,7.97
2019-05-07T18:19:16.346Z,12.90
2019-05-07T18:21:44.074Z,9.77
2019-05-07T18:24:16.377Z,10.17
2019-05-07T18:26:42.341Z,7.43
2019-05-07T18:29:11.809Z,10.10
2019-05-07T18:31:51.998Z,11.53
2019-05-07T18:34:19.561Z,13.93
2019-05-07T18:36:47.222Z,7.13
2019-05-07T18:39:14.898Z,8.10
2019-05-07T18:41:42.466Z,10.90
2019-05-07T18:44:13.488Z,10.43
2019-05-07T18:46:39.545Z,6.57
2019-05-07T18:49:07.140Z,6.90
2019-05-07T18:51:34.905Z,10.83
2019-05-07T18:54:02.557Z,8.03
2019-05-07T18:56:30.221Z,7.07
2019-05-07T18:58:59.654Z,7.60
2019-05-07T19:01:32.728Z,11.07
2019-05-07T19:04:02.036Z,10.83
2019-05-07T19:06:31.671Z,8.53
2019-05-07T19:08:59.016Z,7.23
2019-05-07T19:11:26.780Z,8.63
2019-05-07T19:13:56.115Z,8.63
2019-05-07T19:16:23.782Z,10.80
2019-05-07T19:18:51.378Z,7.97
2019-05-07T19:21:19.137Z,11.20
2019-05-07T19:23:46.723Z,8.63
2019-05-07T19:26:14.278Z,7.60
2019-05-07T19:28:41.874Z,7.63
2019-05-07T19:31:09.465Z,10.57
2019-05-07T19:33:37.085Z,7.17
2019-05-07T19:36:04.761Z,7.10
2019-05-07T19:38:32.471Z,9.17
2019-05-07T19:41:02.041Z,13.83
2019-05-07T19:43:29.437Z,8.90
2019-05-07T19:45:57.045Z,10.47
2019-05-07T19:48:24.676Z,9.40
2019-05-07T19:50:52.917Z,10.17
2019-05-07T19:53:23.277Z,10.60
2019-05-07T19:56:09.820Z,11.40
2019-05-07T19:58:37.415Z,9.27
2019-05-07T20:01:06.171Z,10.53
2019-05-07T20:03:33.769Z,10.23
2019-05-07T20:06:02.398Z,13.03
2019-05-07T20:08:32.283Z,19.33
2019-05-07T20:11:05.041Z,11.30
2019-05-07T20:13:32.870Z,14.73
2019-05-07T20:16:09.254Z,11.90
2019-05-07T20:18:37.137Z,10.63
2019-05-07T20:21:04.823Z,11.40
2019-05-07T20:23:32.802Z,12.37
2019-05-07T20:26:02.797Z,9.27
2019-05-07T20:28:32.352Z,10.17
2019-05-07T20:30:59.415Z,11.03
2019-05-07T20:33:27.226Z,13.80
2019-05-07T20:35:54.834Z,11.33
2019-05-07T20:38:22.485Z,15.13
2019-05-07T20:40:52.038Z,10.23
2019-05-07T20:43:19.415Z,11.00
2019-05-07T20:45:46.988Z,10.13
2019-05-07T20:48:14.547Z,14.30
2019-05-07T20:50:42.475Z,11.33
2019-05-07T20:53:10.530Z,14.80
2019-05-07T20:55:43.242Z,10.27
2019-05-07T20:58:12.765Z,14.27
2019-05-07T21:00:40.371Z,10.47
2019-05-07T21:03:20.214Z,12.20
2019-05-07T21:05:50.129Z,10.90
2019-05-07T21:08:17.717Z,11.07
2019-05-07T21:10:45.274Z,10.60
2019-05-07T21:13:26.950Z,11.30
2019-05-07T21:15:42.228Z,12.50
2019-05-07T21:18:12.128Z,12.93
2019-05-07T21:20:39.336Z,12.90
2019-05-07T21:23:06.910Z,13.17
2019-05-07T21:25:42.699Z,12.93
2019-05-07T21:28:04.095Z,12.10
2019-05-07T21:30:32.851Z,9.57
2019-05-07T21:33:00.447Z,14.10
2019-05-07T21:35:28.216Z,11.63
2019-05-07T21:37:55.787Z,10.90
2019-05-07T21:40:23.354Z,10.70
2019-05-07T21:42:52.082Z,11.70
2019-05-07T21:45:23.605Z,12.93
2019-05-07T21:47:49.110Z,11.70
2019-05-07T21:50:16.690Z,13.03
2019-05-07T21:52:48.858Z,13.93
2019-05-07T21:55:37.977Z,14.20
2019-05-07T21:58:25.069Z,11.93
2019-05-07T22:01:32.767Z,12.67
2019-05-07T22:04:01.911Z,11.70
2019-05-07T22:06:29.784Z,15.87
2019-05-07T22:08:57.334Z,13.20
2019-05-07T22:11:24.974Z,13.90
2019-05-07T22:13:54.723Z,11.93
2019-05-07T22:16:22.296Z,14.00
2019-05-07T22:18:52.038Z,15.13
2019-05-07T22:21:19.443Z,14.77
2019-05-07T22:23:46.978Z,12.27
2019-05-07T22:26:22.978Z,12.57
2019-05-07T22:28:43.902Z,14.37
2019-05-07T22:31:23.258Z,16.00
2019-05-07T22:34:22.339Z,11.00
2019-05-07T22:36:49.873Z,13.27
2019-05-07T22:39:19.200Z,14.57
2019-05-07T22:41:46.762Z,14.03
2019-05-07T22:44:14.281Z,14.73
2019-05-07T22:46:42.287Z,14.30
2019-05-07T22:49:12.093Z,18.80
2019-05-07T22:51:39.311Z,14.93
2019-05-07T22:54:06.888Z,15.00
2019-05-07T22:56:52.540Z,23.87
2019-05-07T22:59:22.490Z,12.77
2019-05-07T23:01:51.662Z,16.07
2019-05-07T23:04:19.036Z,16.07
2019-05-07T23:06:46.587Z,16.23
2019-05-07T23:09:14.122Z,14.33
2019-05-07T23:11:41.690Z,12.73
2019-05-07T23:14:09.224Z,15.50
2019-05-07T23:16:36.768Z,13.87
2019-05-07T23:19:04.317Z,15.80
2019-05-07T23:21:32.058Z,16.23
2019-05-07T23:23:59.557Z,14.83
2019-05-07T23:26:27.116Z,15.70
2019-05-07T23:28:54.683Z,18.00
2019-05-07T23:31:22.882Z,16.13
2019-05-07T23:33:52.368Z,17.87
2019-05-07T23:36:22.487Z,15.53
2019-05-07T23:38:51.870Z,18.67
2019-05-07T23:41:32.937Z,14.30
2019-05-07T23:44:12.403Z,15.23
2019-05-07T23:46:39.815Z,18.00
2019-05-07T23:49:07.353Z,18.07
2019-05-07T23:51:35.338Z,22.57
2019-05-07T23:54:02.973Z,17.90
2019-05-07T23:56:32.765Z,16.33
2019-05-07T23:58:59.823Z,20.93
